createdAt,value
2023-01-29T00:00:30.598Z,46.65
2023-01-29T00:03:42.116Z,43.57
2023-01-29T00:06:52.547Z,48.25
2023-01-29T00:09:56.975Z,49.55
2023-01-29T00:13:10.075Z,47.72
2023-01-29T00:16:16.081Z,47.67
2023-01-29T00:19:22.840Z,44.10
2023-01-29T00:22:34.095Z,47.28
2023-01-29T00:25:41.434Z,47.08
2023-01-29T00:28:49.218Z,49.78
2023-01-29T00:31:54.143Z,44.78
2023-01-29T00:35:01.666Z,49.83
2023-01-29T00:38:06.766Z,45.65
2023-01-29T00:41:34.522Z,53.63
2023-01-29T00:44:58.932Z,48.08
2023-01-29T00:48:08.535Z,47.45
2023-01-29T00:51:13.110Z,47.77
2023-01-29T00:54:19.593Z,51.13
2023-01-29T00:57:27.097Z,49.28
2023-01-29T01:00:32.494Z,53.17
2023-01-29T01:03:43.960Z,51.75
2023-01-29T01:06:47.545Z,48.30
2023-01-29T01:10:08.645Z,53.10
2023-01-29T01:13:12.723Z,49.40
2023-01-29T01:16:21.054Z,54.17
2023-01-29T01:19:23.364Z,58.55
2023-01-29T01:22:27.715Z,49.40
2023-01-29T01:25:32.943Z,50.53
2023-01-29T01:28:35.759Z,52.20
2023-01-29T01:31:38.152Z,45.17
2023-01-29T01:34:42.856Z,50.25
2023-01-29T01:37:48.139Z,50.37
2023-01-29T01:41:06.396Z,46.28
2023-01-29T01:44:47.195Z,51.53
2023-01-29T01:48:03.946Z,45.38
2023-01-29T01:51:09.259Z,50.15
2023-01-29T01:54:20.183Z,44.67
2023-01-29T01:57:27.925Z,48.78
2023-01-29T02:00:33.688Z,51.90
2023-01-29T02:04:04.695Z,46.78
2023-01-29T02:07:32.018Z,45.38
2023-01-29T02:10:45.961Z,48.27
2023-01-29T02:13:59.983Z,47.28
2023-01-29T02:17:06.160Z,43.75
2023-01-29T02:20:27.815Z,47.85
2023-01-29T02:23:58.196Z,42.08
2023-01-29T02:27:17.922Z,49.53
2023-01-29T02:30:28.807Z,45.00
2023-01-29T02:33:48.232Z,47.75
2023-01-29T02:37:06.832Z,48.10
2023-01-29T02:40:22.823Z,47.05
2023-01-29T02:43:47.956Z,48.23
2023-01-29T02:46:58.561Z,50.72
2023-01-29T02:50:19.043Z,47.22
2023-01-29T02:53:48.854Z,45.97
2023-01-29T02:57:04.138Z,46.63
2023-01-29T03:00:30.209Z,47.70
2023-01-29T03:03:44.650Z,43.80
2023-01-29T03:06:54.703Z,47.15
2023-01-29T03:09:59.915Z,44.72
2023-01-29T03:13:47.217Z,43.20
2023-01-29T03:16:56.333Z,47.37
2023-01-29T03:20:03.738Z,45.65
2023-01-29T03:23:14.471Z,41.60
2023-01-29T03:26:42.306Z,36.97
2023-01-29T03:30:09.442Z,34.53
2023-01-29T03:33:45.302Z,37.57
2023-01-29T03:37:10.719Z,30.20
2023-01-29T03:40:17.773Z,32.80
2023-01-29T03:43:56.072Z,36.03
2023-01-29T03:47:16.061Z,38.33
2023-01-29T03:50:59.003Z,32.53
2023-01-29T03:54:26.430Z,30.92
2023-01-29T03:57:41.603Z,31.02
2023-01-29T04:00:56.601Z,33.80
2023-01-29T04:04:15.233Z,28.55
2023-01-29T04:07:30.144Z,30.40
2023-01-29T04:10:40.186Z,30.38
2023-01-29T04:13:46.837Z,35.20
2023-01-29T04:17:02.229Z,32.80
2023-01-29T04:20:23.297Z,32.30
2023-01-29T04:23:27.704Z,32.63
2023-01-29T04:27:13.799Z,28.30
2023-01-29T04:30:36.276Z,26.98
2023-01-29T04:33:48.274Z,30.08
2023-01-29T04:37:04.631Z,31.55
2023-01-29T04:40:19.731Z,31.67
2023-01-29T04:43:48.142Z,27.02
2023-01-29T04:47:03.461Z,29.17
2023-01-29T04:50:34.567Z,26.52
2023-01-29T04:54:05.555Z,28.25
2023-01-29T04:57:38.012Z,29.23
2023-01-29T05:00:47.420Z,23.85
2023-01-29T05:03:58.027Z,25.15
2023-01-29T05:07:11.367Z,25.80
2023-01-29T05:10:32.541Z,25.15
2023-01-29T05:13:39.626Z,32.60
2023-01-29T05:16:53.261Z,28.17
2023-01-29T05:20:10.037Z,32.13
2023-01-29T05:23:26.305Z,35.00
2023-01-29T05:26:47.363Z,30.60
2023-01-29T05:30:02.819Z,27.20
2023-01-29T05:33:17.964Z,25.75
2023-01-29T05:36:32.768Z,21.67
2023-01-29T05:39:43.660Z,27.55
2023-01-29T05:43:04.555Z,26.20
2023-01-29T05:46:12.624Z,23.63
2023-01-29T05:49:16.522Z,25.17
2023-01-29T05:52:21.682Z,25.52
2023-01-29T05:55:39.839Z,23.98
2023-01-29T05:58:47.128Z,25.50
2023-01-29T06:01:54.374Z,24.70
2023-01-29T06:04:56.626Z,24.85
2023-01-29T06:08:01.619Z,19.75
2023-01-29T06:11:13.348Z,27.25
2023-01-29T06:14:15.619Z,25.05
2023-01-29T06:17:27.000Z,23.13
2023-01-29T06:20:38.809Z,25.77
2023-01-29T06:23:46.100Z,25.13
2023-01-29T06:26:49.281Z,25.98
2023-01-29T06:29:54.223Z,27.52
2023-01-29T06:33:01.567Z,25.93
2023-01-29T06:36:15.682Z,21.48
2023-01-29T06:39:20.701Z,21.98
2023-01-29T06:42:28.114Z,18.58
2023-01-29T06:45:33.443Z,18.25
2023-01-29T06:48:42.427Z,19.93
2023-01-29T06:51:44.687Z,20.55
2023-01-29T06:54:47.646Z,17.85
2023-01-29T06:57:49.930Z,15.57
2023-01-29T07:00:57.070Z,23.67
2023-01-29T07:04:01.301Z,17.57
2023-01-29T07:07:04.046Z,19.77
2023-01-29T07:10:12.313Z,22.77
2023-01-29T07:13:18.803Z,19.45
2023-01-29T07:16:21.322Z,21.50
2023-01-29T07:19:32.280Z,20.97
2023-01-29T07:22:38.733Z,15.93
2023-01-29T07:25:41.526Z,21.10
2023-01-29T07:28:46.873Z,19.50
2023-01-29T07:31:54.362Z,21.95
2023-01-29T07:35:01.654Z,23.67
2023-01-29T07:38:06.003Z,20.02
2023-01-29T07:41:10.362Z,22.33
2023-01-29T07:44:12.589Z,24.52
2023-01-29T07:47:17.040Z,22.52
2023-01-29T07:50:28.984Z,19.60
2023-01-29T07:53:35.757Z,27.17
2023-01-29T07:56:39.420Z,21.08
2023-01-29T07:59:54.858Z,19.15
2023-01-29T08:03:18.741Z,20.05
2023-01-29T08:06:27.280Z,19.70
2023-01-29T08:09:29.510Z,16.48
2023-01-29T08:12:31.920Z,13.18
2023-01-29T08:15:46.248Z,18.08
2023-01-29T08:18:51.526Z,17.73
2023-01-29T08:21:59.240Z,18.47
2023-01-29T08:25:08.301Z,15.80
2023-01-29T08:28:21.624Z,21.98
2023-01-29T08:31:36.349Z,17.92
2023-01-29T08:34:38.642Z,23.27
2023-01-29T08:37:43.003Z,19.47
2023-01-29T08:40:47.496Z,18.73
2023-01-29T08:43:54.835Z,16.35
2023-01-29T08:47:19.658Z,18.08
2023-01-29T08:50:24.341Z,20.13
2023-01-29T08:53:37.557Z,16.20
2023-01-29T08:56:43.705Z,14.93
2023-01-29T08:59:48.572Z,16.20
2023-01-29T09:02:59.781Z,13.75
2023-01-29T09:06:04.237Z,16.58
2023-01-29T09:09:10.064Z,15.13
2023-01-29T09:12:13.488Z,15.32
2023-01-29T09:15:22.248Z,14.63
2023-01-29T09:18:26.992Z,14.45
2023-01-29T09:21:29.192Z,16.20
2023-01-29T09:24:32.686Z,34.40
2023-01-29T09:27:46.314Z,30.00
2023-01-29T09:30:52.990Z,72.30
2023-01-29T09:33:58.238Z,74.45
2023-01-29T09:37:00.515Z,34.08
2023-01-29T09:40:07.212Z,15.90
2023-01-29T09:43:18.349Z,13.02
2023-01-29T09:46:38.439Z,12.90
2023-01-29T09:49:46.051Z,14.98
2023-01-29T09:53:04.302Z,15.15
2023-01-29T09:56:18.789Z,14.53
2023-01-29T09:59:32.119Z,13.45
2023-01-29T10:02:51.691Z,12.68
2023-01-29T10:06:23.334Z,14.27
2023-01-29T10:09:39.822Z,15.65
2023-01-29T10:13:11.142Z,13.10
2023-01-29T10:16:54.315Z,14.63
2023-01-29T10:20:05.844Z,13.15
2023-01-29T10:23:45.859Z,15.20
2023-01-29T10:27:03.036Z,15.13
2023-01-29T10:30:23.369Z,13.07
2023-01-29T10:33:59.464Z,11.60
2023-01-29T10:37:32.551Z,10.18
2023-01-29T10:40:46.547Z,12.93
2023-01-29T10:44:08.465Z,11.93
2023-01-29T10:47:41.174Z,10.87
2023-01-29T10:50:52.116Z,10.77
2023-01-29T10:54:24.102Z,11.40
2023-01-29T10:57:39.204Z,9.95
2023-01-29T11:00:46.733Z,11.13
2023-01-29T11:04:06.978Z,10.77
2023-01-29T11:07:12.336Z,10.68
2023-01-29T11:10:23.747Z,10.60
2023-01-29T11:13:51.154Z,7.97
2023-01-29T11:16:59.976Z,9.82
2023-01-29T11:20:04.695Z,9.57
2023-01-29T11:23:19.703Z,9.90
2023-01-29T11:26:25.128Z,10.30
2023-01-29T11:29:30.313Z,15.75
2023-01-29T11:32:37.099Z,10.43
2023-01-29T11:35:41.764Z,10.30
2023-01-29T11:38:44.237Z,10.00
2023-01-29T11:42:08.278Z,8.80
2023-01-29T11:45:35.308Z,11.70
2023-01-29T11:48:43.685Z,11.25
2023-01-29T11:51:55.966Z,13.57
2023-01-29T11:55:29.685Z,9.52
2023-01-29T11:58:37.476Z,11.75
2023-01-29T12:01:42.835Z,13.02
2023-01-29T12:04:49.891Z,8.73
2023-01-29T12:08:00.609Z,10.73
2023-01-29T12:11:14.965Z,8.88
2023-01-29T12:14:34.422Z,9.77
2023-01-29T12:17:43.643Z,10.38
2023-01-29T12:21:27.071Z,9.07
2023-01-29T12:24:52.520Z,9.77
2023-01-29T12:28:09.610Z,9.05
2023-01-29T12:31:49.754Z,11.05
2023-01-29T12:34:57.816Z,9.57
2023-01-29T12:38:14.596Z,9.35
2023-01-29T12:41:40.366Z,9.57
2023-01-29T12:44:59.641Z,10.18
2023-01-29T12:48:17.938Z,9.30
2023-01-29T12:51:28.094Z,11.15
2023-01-29T12:54:42.500Z,9.73
2023-01-29T12:58:12.516Z,9.00
2023-01-29T13:01:23.946Z,14.05
2023-01-29T13:04:57.735Z,10.15
2023-01-29T13:08:29.008Z,7.35
2023-01-29T13:11:55.325Z,7.95
2023-01-29T13:15:28.898Z,11.10
2023-01-29T13:18:49.344Z,8.40
2023-01-29T13:21:55.486Z,8.18
2023-01-29T13:25:04.665Z,9.93
2023-01-29T13:28:21.937Z,11.05
2023-01-29T13:31:34.842Z,7.43
2023-01-29T13:34:45.725Z,7.90
2023-01-29T13:37:57.195Z,8.20
2023-01-29T13:41:05.175Z,8.13
2023-01-29T13:44:20.443Z,9.65
2023-01-29T13:47:36.502Z,9.17
2023-01-29T13:50:43.344Z,8.88
2023-01-29T13:54:20.904Z,9.70
2023-01-29T13:57:46.754Z,8.13
2023-01-29T14:00:49.612Z,11.05
2023-01-29T14:04:07.837Z,8.90
2023-01-29T14:07:40.944Z,8.50
2023-01-29T14:10:47.995Z,7.65
2023-01-29T14:13:52.481Z,9.90
2023-01-29T14:17:06.628Z,11.07
2023-01-29T14:20:21.113Z,7.73
2023-01-29T14:23:44.580Z,10.55
2023-01-29T14:26:54.731Z,8.32
2023-01-29T14:30:07.186Z,8.63
2023-01-29T14:33:27.429Z,7.75
2023-01-29T14:36:51.773Z,10.73
2023-01-29T14:40:27.658Z,11.07
2023-01-29T14:43:35.534Z,8.05
2023-01-29T14:46:49.599Z,10.68
2023-01-29T14:50:02.145Z,11.13
2023-01-29T14:53:19.151Z,11.23
2023-01-29T14:56:54.890Z,11.30
2023-01-29T15:00:11.072Z,11.98
2023-01-29T15:03:23.175Z,10.85
2023-01-29T15:06:46.627Z,12.13
2023-01-29T15:10:22.398Z,14.83
2023-01-29T15:13:42.563Z,11.13
2023-01-29T15:16:53.463Z,11.93
2023-01-29T15:19:58.310Z,13.32
2023-01-29T15:23:26.019Z,13.68
2023-01-29T15:26:32.209Z,14.00
2023-01-29T15:29:35.587Z,11.05
2023-01-29T15:32:40.373Z,11.82
2023-01-29T15:35:51.587Z,11.90
2023-01-29T15:39:34.130Z,11.27
2023-01-29T15:42:57.262Z,12.27
2023-01-29T15:46:06.871Z,16.20
2023-01-29T15:49:21.628Z,12.48
2023-01-29T15:52:33.249Z,10.77
2023-01-29T15:55:36.286Z,13.43
2023-01-29T15:58:42.678Z,11.50
2023-01-29T16:01:56.230Z,13.00
2023-01-29T16:05:03.195Z,12.75
2023-01-29T16:08:16.832Z,15.07
2023-01-29T16:11:30.890Z,14.07
2023-01-29T16:14:42.014Z,21.77
2023-01-29T16:17:49.241Z,15.02
2023-01-29T16:21:05.425Z,18.20
2023-01-29T16:24:23.366Z,16.33
2023-01-29T16:27:26.412Z,15.90
2023-01-29T16:30:30.969Z,16.20
2023-01-29T16:33:39.054Z,15.88
2023-01-29T16:36:46.720Z,17.95
2023-01-29T16:39:52.378Z,16.58
2023-01-29T16:43:42.124Z,18.40
2023-01-29T16:47:14.227Z,19.07
2023-01-29T16:50:53.953Z,25.05
2023-01-29T16:54:18.269Z,22.92
2023-01-29T16:57:34.470Z,19.30
2023-01-29T17:00:53.086Z,14.75
2023-01-29T17:04:15.140Z,14.63
2023-01-29T17:07:21.380Z,15.75
2023-01-29T17:10:30.456Z,13.48
2023-01-29T17:13:43.043Z,17.08
2023-01-29T17:17:02.151Z,18.25
2023-01-29T17:20:16.474Z,18.50
2023-01-29T17:23:19.451Z,15.80
2023-01-29T17:26:23.119Z,18.17
2023-01-29T17:29:30.979Z,18.08
2023-01-29T17:32:47.858Z,16.42
2023-01-29T17:35:53.673Z,17.67
2023-01-29T17:38:57.449Z,21.13
2023-01-29T17:42:04.627Z,17.42
2023-01-29T17:45:21.361Z,19.05
2023-01-29T17:48:28.997Z,19.48
2023-01-29T17:51:37.197Z,15.50
2023-01-29T17:54:47.885Z,18.92
2023-01-29T17:57:53.120Z,20.80
2023-01-29T18:01:05.176Z,20.20
2023-01-29T18:04:12.650Z,20.98
2023-01-29T18:07:16.798Z,19.33
2023-01-29T18:10:26.735Z,20.50
2023-01-29T18:13:32.368Z,24.58
2023-01-29T18:16:37.651Z,21.40
2023-01-29T18:19:40.239Z,22.23
2023-01-29T18:22:42.635Z,19.77
2023-01-29T18:25:50.278Z,22.13
2023-01-29T18:28:55.402Z,21.10
2023-01-29T18:32:05.090Z,21.23
2023-01-29T18:35:19.123Z,23.30
2023-01-29T18:38:27.463Z,19.23
2023-01-29T18:41:38.964Z,18.58
2023-01-29T18:44:47.444Z,22.52
2023-01-29T18:47:52.555Z,21.15
2023-01-29T18:50:58.092Z,23.75
2023-01-29T18:54:11.351Z,23.87
2023-01-29T18:58:26.332Z,23.35
2023-01-29T19:00:48.922Z,25.10
2023-01-29T19:03:54.214Z,23.70
2023-01-29T19:06:58.930Z,26.08
2023-01-29T19:10:07.944Z,25.77
2023-01-29T19:13:16.867Z,24.13
2023-01-29T19:16:27.223Z,38.05
2023-01-29T19:19:34.537Z,24.33
2023-01-29T19:22:44.372Z,26.42
2023-01-29T19:25:49.064Z,21.00
2023-01-29T19:29:02.216Z,22.23
2023-01-29T19:32:08.861Z,21.23
2023-01-29T19:35:14.520Z,20.92
2023-01-29T19:38:22.661Z,20.45
2023-01-29T19:41:31.846Z,22.47
2023-01-29T19:44:36.859Z,21.10
2023-01-29T19:47:50.481Z,21.90
2023-01-29T19:51:10.363Z,22.00
2023-01-29T19:54:12.751Z,20.40
2023-01-29T19:57:25.042Z,23.97
2023-01-29T20:00:36.198Z,23.48
2023-01-29T20:03:42.957Z,22.10
2023-01-29T20:06:49.516Z,20.98
2023-01-29T20:09:54.199Z,21.70
2023-01-29T20:12:57.662Z,17.40
2023-01-29T20:16:05.668Z,20.58
2023-01-29T20:19:14.127Z,20.98
2023-01-29T20:22:20.743Z,20.92
2023-01-29T20:25:22.985Z,17.75
2023-01-29T20:28:32.200Z,21.87
2023-01-29T20:31:40.925Z,20.95
2023-01-29T20:34:57.976Z,18.77
2023-01-29T20:38:19.501Z,19.35
2023-01-29T20:41:25.764Z,21.67
2023-01-29T20:44:30.997Z,18.53
2023-01-29T20:47:34.477Z,22.58
2023-01-29T20:50:39.959Z,24.83
2023-01-29T20:53:50.515Z,23.70
2023-01-29T20:56:55.301Z,23.45
2023-01-29T21:00:02.016Z,21.90
2023-01-29T21:03:04.436Z,26.42
2023-01-29T21:06:11.624Z,24.75
2023-01-29T21:09:17.339Z,25.52
2023-01-29T21:12:26.604Z,24.35
2023-01-29T21:15:33.989Z,24.00
2023-01-29T21:18:39.554Z,25.38
2023-01-29T21:21:45.288Z,21.60
2023-01-29T21:24:50.573Z,22.02
2023-01-29T21:27:59.699Z,22.50
2023-01-29T21:31:16.453Z,22.70
2023-01-29T21:34:21.524Z,25.48
2023-01-29T21:37:23.801Z,22.35
2023-01-29T21:40:42.983Z,20.55
2023-01-29T21:43:47.584Z,23.17
2023-01-29T21:46:49.880Z,24.63
2023-01-29T21:50:02.467Z,23.90
2023-01-29T21:53:20.865Z,25.92
2023-01-29T21:56:24.914Z,27.77
2023-01-29T21:59:35.883Z,24.00
2023-01-29T22:02:53.101Z,20.83
2023-01-29T22:05:59.352Z,24.50
2023-01-29T22:09:01.671Z,24.02
2023-01-29T22:12:17.666Z,23.67
2023-01-29T22:15:25.380Z,21.73
2023-01-29T22:18:30.195Z,23.67
2023-01-29T22:21:37.088Z,26.00
2023-01-29T22:24:44.710Z,23.45
2023-01-29T22:27:59.449Z,20.98
2023-01-29T22:31:05.747Z,20.88
2023-01-29T22:34:15.344Z,23.33
2023-01-29T22:37:23.419Z,17.75
2023-01-29T22:40:28.614Z,24.65
2023-01-29T22:43:37.743Z,24.50
2023-01-29T22:46:41.482Z,22.23
2023-01-29T22:49:49.237Z,27.47
2023-01-29T22:52:54.283Z,24.20
2023-01-29T22:55:59.591Z,26.52
2023-01-29T22:59:04.369Z,28.13
2023-01-29T23:02:12.364Z,24.13
2023-01-29T23:05:24.838Z,25.73
2023-01-29T23:08:27.754Z,23.67
2023-01-29T23:11:33.836Z,23.58
2023-01-29T23:14:43.688Z,26.50
2023-01-29T23:17:56.390Z,24.40
2023-01-29T23:24:19.825Z,23.63
2023-01-29T23:27:29.311Z,22.23
2023-01-29T23:30:34.767Z,25.88
2023-01-29T23:33:43.375Z,23.73
2023-01-29T23:36:57.467Z,27.67
2023-01-29T23:40:08.679Z,27.85
2023-01-29T23:43:20.314Z,25.42
2023-01-29T23:46:24.396Z,24.17
2023-01-29T23:49:40.459Z,23.13
2023-01-29T23:52:52.081Z,26.67
2023-01-29T23:56:05.095Z,23.70
2023-01-29T23:59:21.254Z,22.17
